createdAt,value
2019-05-22T00:00:47.118Z,83.14
2019-05-22T00:01:47.107Z,83.45
2019-05-22T00:02:47.106Z,83.45
2019-05-22T00:03:47.099Z,83.34
2019-05-22T00:04:47.079Z,83.14
2019-05-22T00:05:47.075Z,83.25
2019-05-22T00:06:47.058Z,83.54
2019-05-22T00:07:47.042Z,83.54
2019-05-22T00:08:47.043Z,83.45
2019-05-22T00:09:47.023Z,83.34
2019-05-22T00:10:47.037Z,83.65
2019-05-22T00:11:47.002Z,83.45
2019-05-22T00:12:47.392Z,83.45
2019-05-22T00:13:46.979Z,83.84
2019-05-22T00:14:46.969Z,84.49
2019-05-22T00:15:46.960Z,84.39
2019-05-22T00:16:46.950Z,84.49
2019-05-22T00:17:46.932Z,84.19
2019-05-22T00:18:46.920Z,84.33
2019-05-22T00:19:46.908Z,83.99
2019-05-22T00:20:46.959Z,83.99
2019-05-22T00:21:46.890Z,84.09
2019-05-22T00:22:46.889Z,84.19
2019-05-22T00:23:46.870Z,83.89
2019-05-22T00:24:46.862Z,83.28
2019-05-22T00:25:46.843Z,83.12
2019-05-22T00:26:46.845Z,83.32
2019-05-22T00:27:46.820Z,83.28
2019-05-22T00:28:46.811Z,83.39
2019-05-22T00:29:46.803Z,83.28
2019-05-22T00:30:46.787Z,83.48
2019-05-22T00:31:46.788Z,83.79
2019-05-22T00:32:46.769Z,82.78
2019-05-22T00:33:46.756Z,82.92
2019-05-22T00:34:46.747Z,83.12
2019-05-22T00:35:46.749Z,83.02
2019-05-22T00:36:46.753Z,82.11
2019-05-22T00:37:46.718Z,81.91
2019-05-22T00:38:46.700Z,81.95
2019-05-22T00:39:46.691Z,82.25
2019-05-22T00:40:46.679Z,81.55
2019-05-22T00:41:46.669Z,81.95
2019-05-22T00:43:01.161Z,81.85
2019-05-22T00:43:47.647Z,82.05
2019-05-22T00:44:46.632Z,82.05
2019-05-22T00:45:46.629Z,81.95
2019-05-22T00:46:46.610Z,81.85
2019-05-22T00:47:46.613Z,81.95
2019-05-22T00:48:46.593Z,81.85
2019-05-22T00:49:46.583Z,81.95
2019-05-22T00:50:46.575Z,81.75
2019-05-22T00:51:46.573Z,81.55
2019-05-22T00:52:46.577Z,81.95
2019-05-22T00:53:46.536Z,81.95
2019-05-22T00:54:46.519Z,81.45
2019-05-22T00:55:46.509Z,82.05
2019-05-22T00:56:46.500Z,81.95
2019-05-22T00:57:46.495Z,82.05
2019-05-22T00:58:46.512Z,82.15
2019-05-22T00:59:46.467Z,81.75
2019-05-22T01:00:46.459Z,81.95
2019-05-22T01:01:46.448Z,81.95
2019-05-22T01:02:46.437Z,81.65
2019-05-22T01:03:46.426Z,82.35
2019-05-22T01:04:46.424Z,81.85
2019-05-22T01:05:46.403Z,82.05
2019-05-22T01:06:46.401Z,82.05
2019-05-22T01:07:46.381Z,82.35
2019-05-22T01:08:46.395Z,82.76
2019-05-22T01:09:46.360Z,82.76
2019-05-22T01:10:46.352Z,82.59
2019-05-22T01:11:46.339Z,82.39
2019-05-22T01:12:46.320Z,82.25
2019-05-22T01:13:46.311Z,82.70
2019-05-22T01:14:46.313Z,83.00
2019-05-22T01:15:46.293Z,83.10
2019-05-22T01:16:46.277Z,83.10
2019-05-22T01:17:46.273Z,82.79
2019-05-22T01:18:46.274Z,83.20
2019-05-22T01:19:46.255Z,82.90
2019-05-22T01:20:46.237Z,83.00
2019-05-22T01:21:46.226Z,83.14
2019-05-22T01:22:47.458Z,82.84
2019-05-22T01:23:46.221Z,82.33
2019-05-22T01:24:46.214Z,82.13
2019-05-22T01:25:46.183Z,82.39
2019-05-22T01:26:46.170Z,82.23
2019-05-22T01:27:46.166Z,82.23
2019-05-22T01:28:46.147Z,82.64
2019-05-22T01:29:46.136Z,82.13
2019-05-22T01:30:46.137Z,82.13
2019-05-22T01:31:46.154Z,82.57
2019-05-22T01:32:46.107Z,82.78
2019-05-22T01:33:46.097Z,82.93
2019-05-22T01:34:46.087Z,82.37
2019-05-22T01:35:46.089Z,82.03
2019-05-22T01:36:46.057Z,82.13
2019-05-22T01:37:46.047Z,82.13
2019-05-22T01:38:46.038Z,82.23
2019-05-22T01:39:46.030Z,81.73
2019-05-22T01:40:46.020Z,81.62
2019-05-22T01:41:46.031Z,82.03
2019-05-22T01:42:45.997Z,81.99
2019-05-22T01:43:45.983Z,81.82
2019-05-22T01:44:59.791Z,81.38
2019-05-22T01:45:46.966Z,81.38
2019-05-22T01:46:45.950Z,81.28
2019-05-22T01:47:45.952Z,81.32
2019-05-22T01:48:45.933Z,81.59
2019-05-22T01:49:45.922Z,81.22
2019-05-22T01:50:45.910Z,81.18
2019-05-22T01:51:45.893Z,81.48
2019-05-22T01:52:45.898Z,81.48
2019-05-22T01:53:45.878Z,81.22
2019-05-22T01:54:45.868Z,81.32
2019-05-22T01:55:45.855Z,81.52
2019-05-22T01:56:45.856Z,81.52
2019-05-22T01:57:45.828Z,81.48
2019-05-22T01:58:45.820Z,81.32
2019-05-22T01:59:45.813Z,81.62
2019-05-22T02:00:45.807Z,82.23
2019-05-22T02:01:45.786Z,81.62
2019-05-22T02:02:45.790Z,81.93
2019-05-22T02:03:45.765Z,82.53
2019-05-22T02:04:45.756Z,82.78
2019-05-22T02:05:45.742Z,82.87
2019-05-22T02:06:45.733Z,82.67
2019-05-22T02:07:45.728Z,83.18
2019-05-22T02:08:45.714Z,83.07
2019-05-22T02:09:45.699Z,83.07
2019-05-22T02:10:45.702Z,82.98
2019-05-22T02:11:45.682Z,82.27
2019-05-22T02:12:45.669Z,83.12
2019-05-22T02:13:45.658Z,83.22
2019-05-22T02:14:45.647Z,83.18
2019-05-22T02:15:45.661Z,83.88
2019-05-22T02:16:56.002Z,83.38
2019-05-22T02:17:46.613Z,82.91
2019-05-22T02:18:45.600Z,82.98
2019-05-22T02:19:45.588Z,82.98
2019-05-22T02:20:45.583Z,83.07
2019-05-22T02:21:45.580Z,82.98
2019-05-22T02:22:45.564Z,83.07
2019-05-22T02:23:45.545Z,82.27
2019-05-22T02:24:45.536Z,81.76
2019-05-22T02:25:45.536Z,82.71
2019-05-22T02:26:45.520Z,82.61
2019-05-22T02:27:45.509Z,82.91
2019-05-22T02:28:45.507Z,82.71
2019-05-22T02:29:45.480Z,82.61
2019-05-22T02:30:45.499Z,82.81
2019-05-22T02:31:45.459Z,82.81
2019-05-22T02:32:45.456Z,82.41
2019-05-22T02:33:45.452Z,82.41
2019-05-22T02:34:45.431Z,82.61
2019-05-22T02:35:45.415Z,82.71
2019-05-22T02:36:45.437Z,82.41
2019-05-22T02:37:45.394Z,82.10
2019-05-22T02:38:45.389Z,82.10
2019-05-22T02:39:45.377Z,82.41
2019-05-22T02:40:45.365Z,82.91
2019-05-22T02:41:45.365Z,82.10
2019-05-22T02:42:45.357Z,82.91
2019-05-22T02:43:45.335Z,82.01
2019-05-22T02:44:45.324Z,82.51
2019-05-22T02:45:45.326Z,82.41
2019-05-22T02:46:45.305Z,82.61
2019-05-22T02:47:45.315Z,82.10
2019-05-22T02:48:45.280Z,82.31
2019-05-22T02:49:45.264Z,82.01
2019-05-22T02:50:45.254Z,82.21
2019-05-22T02:51:45.250Z,81.90
2019-05-22T02:52:45.243Z,81.90
2019-05-22T02:53:45.234Z,82.10
2019-05-22T02:54:45.216Z,81.40
2019-05-22T02:55:45.204Z,82.01
2019-05-22T02:56:45.190Z,82.10
2019-05-22T02:57:45.178Z,82.10
2019-05-22T02:58:45.207Z,82.24
2019-05-22T02:59:45.158Z,81.84
2019-05-22T03:00:45.150Z,82.24
2019-05-22T03:01:45.140Z,82.65
2019-05-22T03:02:45.127Z,82.45
2019-05-22T03:03:45.114Z,82.14
2019-05-22T03:04:45.154Z,82.35
2019-05-22T03:05:45.091Z,82.85
2019-05-22T03:06:45.080Z,83.05
2019-05-22T03:07:45.069Z,82.35
2019-05-22T03:08:45.068Z,82.45
2019-05-22T03:09:46.714Z,82.55
2019-05-22T03:10:45.053Z,82.35
2019-05-22T03:11:45.024Z,83.05
2019-05-22T03:12:45.014Z,83.26
2019-05-22T03:13:45.010Z,82.85
2019-05-22T03:14:44.995Z,82.65
2019-05-22T03:15:44.995Z,82.45
2019-05-22T03:16:44.985Z,82.95
2019-05-22T03:17:44.987Z,82.41
2019-05-22T03:18:44.950Z,82.61
2019-05-22T03:19:44.951Z,83.05
2019-05-22T03:20:44.948Z,82.95
2019-05-22T03:21:44.923Z,83.36
2019-05-22T03:22:44.911Z,83.86
2019-05-22T03:23:44.897Z,83.86
2019-05-22T03:24:44.884Z,83.56
2019-05-22T03:25:44.907Z,83.60
2019-05-22T03:26:44.864Z,83.56
2019-05-22T03:27:44.868Z,83.56
2019-05-22T03:28:44.847Z,83.36
2019-05-22T03:29:44.834Z,83.36
2019-05-22T03:30:44.853Z,83.56
2019-05-22T03:31:44.843Z,83.66
2019-05-22T03:32:45.012Z,83.56
2019-05-22T03:33:44.902Z,83.66
2019-05-22T03:34:44.783Z,83.86
2019-05-22T03:35:44.770Z,83.46
2019-05-22T03:36:44.760Z,83.86
2019-05-22T03:37:44.765Z,84.17
2019-05-22T03:38:44.733Z,84.20
2019-05-22T03:39:44.726Z,83.86
2019-05-22T03:40:44.718Z,83.86
2019-05-22T03:41:44.700Z,83.66
2019-05-22T03:42:44.695Z,84.06
2019-05-22T03:43:44.690Z,84.47
2019-05-22T03:44:44.674Z,84.27
2019-05-22T03:45:44.655Z,84.81
2019-05-22T03:46:44.648Z,85.22
2019-05-22T03:47:44.646Z,85.82
2019-05-22T03:48:44.628Z,85.72
2019-05-22T03:49:44.634Z,85.93
2019-05-22T03:50:44.599Z,86.02
2019-05-22T03:51:44.599Z,85.82
2019-05-22T03:52:44.584Z,86.02
2019-05-22T03:53:44.602Z,85.72
2019-05-22T03:54:44.555Z,85.72
2019-05-22T03:55:44.553Z,85.66
2019-05-22T03:56:44.556Z,86.07
2019-05-22T03:57:44.534Z,85.96
2019-05-22T03:58:44.512Z,85.96
2019-05-22T03:59:44.513Z,86.47
2019-05-22T04:00:44.526Z,86.27
2019-05-22T04:01:44.485Z,86.27
2019-05-22T04:02:44.468Z,86.37
2019-05-22T04:03:44.465Z,86.16
2019-05-22T04:04:44.453Z,86.37
2019-05-22T04:05:44.434Z,86.47
2019-05-22T04:06:44.432Z,86.16
2019-05-22T04:07:44.422Z,86.10
2019-05-22T04:08:44.411Z,86.00
2019-05-22T04:09:44.415Z,86.10
2019-05-22T04:10:44.385Z,86.10
2019-05-22T04:11:44.371Z,86.00
2019-05-22T04:12:44.355Z,85.90
2019-05-22T04:13:44.347Z,85.80
2019-05-22T04:14:44.348Z,86.00
2019-05-22T04:15:44.339Z,86.10
2019-05-22T04:16:44.313Z,86.07
2019-05-22T04:17:44.303Z,86.10
2019-05-22T04:18:44.292Z,86.41
2019-05-22T04:19:50.093Z,86.10
2019-05-22T04:20:45.281Z,86.31
2019-05-22T04:21:44.260Z,86.55
2019-05-22T04:22:44.257Z,86.65
2019-05-22T04:23:44.244Z,86.55
2019-05-22T04:24:44.240Z,86.45
2019-05-22T04:25:44.239Z,86.65
2019-05-22T04:26:44.202Z,86.31
2019-05-22T04:27:44.198Z,86.25
2019-05-22T04:28:44.185Z,86.25
2019-05-22T04:29:44.174Z,86.55
2019-05-22T04:30:44.166Z,86.15
2019-05-22T04:31:44.158Z,86.15
2019-05-22T04:32:44.161Z,86.69
2019-05-22T04:33:44.128Z,86.79
2019-05-22T04:34:44.116Z,86.59
2019-05-22T04:35:44.107Z,86.55
2019-05-22T04:36:44.116Z,86.59
2019-05-22T04:37:44.141Z,86.49
2019-05-22T04:38:44.082Z,86.55
2019-05-22T04:39:44.057Z,86.69
2019-05-22T04:40:44.050Z,87.00
2019-05-22T04:41:44.047Z,87.20
2019-05-22T04:42:44.151Z,87.51
2019-05-22T04:43:44.012Z,87.40
2019-05-22T04:44:44.036Z,87.34
2019-05-22T04:45:43.999Z,87.20
2019-05-22T04:46:43.985Z,87.20
2019-05-22T04:47:43.973Z,87.00
2019-05-22T04:48:46.067Z,86.49
2019-05-22T04:49:43.955Z,86.39
2019-05-22T04:50:43.955Z,87.00
2019-05-22T04:51:43.923Z,87.00
2019-05-22T04:52:43.923Z,86.39
2019-05-22T04:53:43.911Z,86.39
2019-05-22T04:54:43.902Z,86.59
2019-05-22T04:55:43.897Z,85.88
2019-05-22T04:56:43.872Z,86.49
2019-05-22T04:57:43.861Z,86.59
2019-05-22T04:58:43.855Z,86.90
2019-05-22T04:59:43.854Z,86.39
2019-05-22T05:00:43.829Z,86.79
2019-05-22T05:01:43.818Z,86.49
2019-05-22T05:02:43.821Z,86.49
2019-05-22T05:03:43.797Z,86.69
2019-05-22T05:04:43.793Z,86.39
2019-05-22T05:05:43.786Z,86.59
2019-05-22T05:06:43.760Z,86.19
2019-05-22T05:07:43.747Z,86.39
2019-05-22T05:08:43.769Z,86.08
2019-05-22T05:09:43.728Z,86.13
2019-05-22T05:10:43.718Z,86.39
2019-05-22T05:11:43.705Z,85.99
2019-05-22T05:12:43.701Z,86.08
2019-05-22T05:13:43.682Z,86.22
2019-05-22T05:14:43.700Z,86.08
2019-05-22T05:15:43.668Z,86.08
2019-05-22T05:16:43.656Z,86.08
2019-05-22T05:17:43.638Z,85.82
2019-05-22T05:18:43.628Z,85.58
2019-05-22T05:19:43.618Z,85.31
2019-05-22T05:20:43.661Z,85.27
2019-05-22T05:21:43.605Z,85.52
2019-05-22T05:22:43.583Z,85.72
2019-05-22T05:23:43.572Z,85.52
2019-05-22T05:24:50.614Z,86.02
2019-05-22T05:25:43.558Z,84.91
2019-05-22T05:26:43.546Z,85.42
2019-05-22T05:27:43.535Z,85.21
2019-05-22T05:28:43.538Z,85.01
2019-05-22T05:29:43.511Z,85.42
2019-05-22T05:30:43.496Z,85.52
2019-05-22T05:31:43.490Z,85.93
2019-05-22T05:32:43.479Z,86.02
2019-05-22T05:33:43.478Z,85.62
2019-05-22T05:34:45.520Z,85.42
2019-05-22T05:35:43.442Z,85.42
2019-05-22T05:36:43.436Z,85.72
2019-05-22T05:37:43.425Z,85.62
2019-05-22T05:38:43.439Z,86.22
2019-05-22T05:39:43.403Z,86.13
2019-05-22T05:40:43.396Z,85.62
2019-05-22T05:41:43.382Z,85.42
2019-05-22T05:42:43.368Z,85.11
2019-05-22T05:43:43.363Z,85.42
2019-05-22T05:44:43.355Z,86.22
2019-05-22T05:45:43.343Z,85.72
2019-05-22T05:46:43.321Z,85.25
2019-05-22T05:47:43.312Z,86.16
2019-05-22T05:48:43.299Z,86.27
2019-05-22T05:49:43.326Z,86.16
2019-05-22T05:50:43.283Z,85.96
2019-05-22T05:51:43.270Z,86.16
2019-05-22T05:52:43.256Z,86.27
2019-05-22T05:53:43.245Z,86.02
2019-05-22T05:54:43.239Z,85.62
2019-05-22T05:55:43.233Z,85.31
2019-05-22T05:56:43.239Z,85.52
2019-05-22T05:57:43.202Z,85.62
2019-05-22T05:58:43.201Z,86.16
2019-05-22T05:59:43.188Z,85.96
2019-05-22T06:00:44.695Z,86.27
2019-05-22T06:01:43.157Z,86.07
2019-05-22T06:02:55.740Z,86.07
2019-05-22T06:03:44.135Z,86.07
2019-05-22T06:04:43.127Z,86.16
2019-05-22T06:05:43.123Z,85.86
2019-05-22T06:06:43.126Z,85.96
2019-05-22T06:07:43.097Z,86.21
2019-05-22T06:08:43.089Z,86.82
2019-05-22T06:09:43.092Z,87.18
2019-05-22T06:10:43.060Z,87.28
2019-05-22T06:11:43.058Z,86.57
2019-05-22T06:12:43.038Z,86.47
2019-05-22T06:13:43.026Z,86.27
2019-05-22T06:14:43.027Z,86.41
2019-05-22T06:15:46.961Z,86.71
2019-05-22T06:16:43.000Z,86.61
2019-05-22T06:17:42.997Z,86.98
2019-05-22T06:18:42.972Z,86.71
2019-05-22T06:19:42.962Z,86.61
2019-05-22T06:20:42.952Z,87.12
2019-05-22T06:21:42.946Z,86.61
2019-05-22T06:22:42.966Z,86.61
2019-05-22T06:23:42.917Z,86.71
2019-05-22T06:24:42.911Z,87.12
2019-05-22T06:25:42.899Z,86.47
2019-05-22T06:26:42.891Z,86.47
2019-05-22T06:27:42.876Z,86.57
2019-05-22T06:28:42.877Z,86.27
2019-05-22T06:29:42.858Z,85.05
2019-05-22T06:30:42.848Z,85.05
2019-05-22T06:31:42.834Z,85.15
2019-05-22T06:32:42.818Z,85.56
2019-05-22T06:33:42.952Z,85.46
2019-05-22T06:34:42.797Z,85.60
2019-05-22T06:35:42.785Z,85.50
2019-05-22T06:36:42.788Z,86.10
2019-05-22T06:37:42.773Z,86.21
2019-05-22T06:38:42.755Z,86.21
2019-05-22T06:39:42.791Z,86.31
2019-05-22T06:40:42.731Z,86.21
2019-05-22T06:41:42.719Z,86.25
2019-05-22T06:42:42.715Z,86.21
2019-05-22T06:43:42.699Z,86.35
2019-05-22T06:44:42.686Z,86.45
2019-05-22T06:45:42.690Z,87.16
2019-05-22T06:46:42.666Z,87.26
2019-05-22T06:47:42.660Z,86.86
2019-05-22T06:48:42.659Z,86.65
2019-05-22T06:49:42.632Z,87.06
2019-05-22T06:50:42.669Z,87.06
2019-05-22T06:51:42.611Z,86.45
2019-05-22T06:52:42.606Z,86.65
2019-05-22T06:53:42.593Z,87.26
2019-05-22T06:54:42.584Z,87.16
2019-05-22T06:55:42.575Z,86.76
2019-05-22T06:56:42.569Z,86.76
2019-05-22T06:57:42.544Z,86.65
2019-05-22T06:58:42.545Z,87.06
2019-05-22T06:59:42.529Z,87.46
2019-05-22T07:00:42.520Z,87.57
2019-05-22T07:01:42.515Z,86.86
2019-05-22T07:02:42.496Z,86.76
2019-05-22T07:03:42.488Z,86.86
2019-05-22T07:04:42.473Z,86.55
2019-05-22T07:05:42.466Z,87.26
2019-05-22T07:06:42.485Z,87.16
2019-05-22T07:07:42.447Z,87.67
2019-05-22T07:08:42.442Z,87.46
2019-05-22T07:09:42.419Z,87.77
2019-05-22T07:10:42.424Z,87.12
2019-05-22T07:11:42.406Z,86.05
2019-05-22T07:12:42.408Z,86.51
2019-05-22T07:13:42.371Z,86.41
2019-05-22T07:14:42.363Z,86.71
2019-05-22T07:15:42.359Z,87.22
2019-05-22T07:16:42.344Z,86.65
2019-05-22T07:17:42.339Z,87.37
2019-05-22T07:18:42.319Z,86.86
2019-05-22T07:19:42.314Z,86.59
2019-05-22T07:20:42.296Z,87.16
2019-05-22T07:21:42.284Z,87.77
2019-05-22T07:22:42.351Z,87.26
2019-05-22T07:23:42.279Z,87.46
2019-05-22T07:24:42.265Z,87.26
2019-05-22T07:25:42.241Z,86.55
2019-05-22T07:26:42.230Z,86.86
2019-05-22T07:27:42.220Z,87.16
2019-05-22T07:28:42.215Z,87.20
2019-05-22T07:29:42.205Z,87.06
2019-05-22T07:30:42.198Z,87.26
2019-05-22T07:31:42.180Z,87.37
2019-05-22T07:32:42.167Z,87.77
2019-05-22T07:33:42.159Z,86.76
2019-05-22T07:34:42.152Z,87.37
2019-05-22T07:36:04.871Z,87.37
2019-05-22T07:36:43.134Z,87.57
2019-05-22T07:37:42.120Z,87.37
2019-05-22T07:38:42.107Z,87.57
2019-05-22T07:39:42.101Z,86.59
2019-05-22T07:40:42.084Z,87.46
2019-05-22T07:41:42.079Z,87.30
2019-05-22T07:42:42.062Z,87.20
2019-05-22T07:43:42.331Z,87.71
2019-05-22T07:44:42.045Z,87.61
2019-05-22T07:45:42.043Z,87.37
2019-05-22T07:46:42.019Z,87.37
2019-05-22T07:47:42.123Z,87.57
2019-05-22T07:48:42.006Z,86.96
2019-05-22T07:49:41.985Z,87.16
2019-05-22T07:50:41.970Z,86.76
2019-05-22T07:51:51.872Z,86.55
2019-05-22T07:52:42.956Z,86.65
2019-05-22T07:53:41.954Z,87.06
2019-05-22T07:54:41.940Z,86.45
2019-05-22T07:55:41.919Z,86.59
2019-05-22T07:56:41.920Z,86.35
2019-05-22T07:57:41.921Z,86.55
2019-05-22T07:58:41.891Z,86.55
2019-05-22T07:59:41.879Z,86.55
2019-05-22T08:00:41.872Z,86.39
2019-05-22T08:01:41.856Z,86.25
2019-05-22T08:02:41.845Z,86.49
2019-05-22T08:03:41.830Z,86.29
2019-05-22T08:04:41.831Z,86.05
2019-05-22T08:05:41.808Z,86.25
2019-05-22T08:06:41.803Z,86.65
2019-05-22T08:07:41.866Z,86.15
2019-05-22T08:08:41.785Z,86.35
2019-05-22T08:09:41.773Z,86.25
2019-05-22T08:10:41.765Z,85.64
2019-05-22T08:11:41.743Z,85.44
2019-05-22T08:12:41.732Z,85.53
2019-05-22T08:13:41.721Z,85.44
2019-05-22T08:14:41.713Z,84.93
2019-05-22T08:15:41.706Z,85.03
2019-05-22T08:16:41.695Z,85.03
2019-05-22T08:17:41.684Z,85.24
2019-05-22T08:18:41.668Z,85.03
2019-05-22T08:19:41.656Z,85.53
2019-05-22T08:20:41.649Z,85.78
2019-05-22T08:21:41.639Z,86.35
2019-05-22T08:22:41.624Z,86.25
2019-05-22T08:23:41.631Z,85.44
2019-05-22T08:24:41.602Z,85.47
2019-05-22T08:25:41.596Z,85.33
2019-05-22T08:26:53.762Z,86.25
2019-05-22T08:27:42.578Z,85.53
2019-05-22T08:28:41.573Z,85.53
2019-05-22T08:29:41.552Z,85.53
2019-05-22T08:30:41.541Z,85.64
2019-05-22T08:31:41.604Z,85.24
2019-05-22T08:32:41.515Z,85.64
2019-05-22T08:33:41.502Z,86.45
2019-05-22T08:34:41.500Z,85.84
2019-05-22T08:35:41.497Z,84.72
2019-05-22T08:36:41.498Z,85.03
2019-05-22T08:37:41.464Z,84.83
2019-05-22T08:38:41.515Z,84.97
2019-05-22T08:39:41.452Z,84.26
2019-05-22T08:40:41.431Z,84.77
2019-05-22T08:41:41.421Z,85.27
2019-05-22T08:42:41.405Z,86.29
2019-05-22T08:44:03.390Z,86.29
2019-05-22T08:44:42.383Z,85.68
2019-05-22T08:45:41.379Z,86.29
2019-05-22T08:46:41.368Z,86.49
2019-05-22T08:47:41.358Z,86.49
2019-05-22T08:48:47.393Z,86.08
2019-05-22T08:49:42.337Z,86.29
2019-05-22T08:50:41.370Z,85.58
2019-05-22T08:51:41.317Z,85.27
2019-05-22T08:52:41.302Z,85.27
2019-05-22T08:53:47.558Z,85.53
2019-05-22T08:54:42.282Z,85.03
2019-05-22T08:55:41.269Z,85.03
2019-05-22T08:56:41.261Z,85.24
2019-05-22T08:57:41.266Z,84.63
2019-05-22T08:58:41.241Z,85.03
2019-05-22T08:59:41.220Z,84.97
2019-05-22T09:00:41.217Z,84.46
2019-05-22T09:01:41.205Z,84.97
2019-05-22T09:02:41.224Z,85.27
2019-05-22T09:03:41.182Z,85.72
2019-05-22T09:04:41.165Z,86.29
2019-05-22T09:05:41.161Z,85.68
2019-05-22T09:06:41.146Z,85.17
2019-05-22T09:07:41.140Z,85.27
2019-05-22T09:08:41.177Z,85.17
2019-05-22T09:09:41.118Z,85.03
2019-05-22T09:10:41.143Z,85.13
2019-05-22T09:11:41.104Z,84.77
2019-05-22T09:12:41.093Z,84.83
2019-05-22T09:13:41.072Z,84.87
2019-05-22T09:14:41.066Z,85.13
2019-05-22T09:15:41.053Z,84.63
2019-05-22T09:16:41.042Z,84.83
2019-05-22T09:17:41.030Z,84.22
2019-05-22T09:18:41.034Z,84.72
2019-05-22T09:19:41.012Z,84.42
2019-05-22T09:20:49.248Z,84.22
2019-05-22T09:21:41.982Z,83.81
2019-05-22T09:22:41.697Z,83.91
2019-05-22T09:23:40.985Z,84.01
2019-05-22T09:24:40.974Z,83.81
2019-05-22T09:25:40.947Z,83.91
2019-05-22T09:26:40.932Z,83.81
2019-05-22T09:27:40.916Z,84.22
2019-05-22T09:28:40.907Z,84.08
2019-05-22T09:29:40.905Z,84.18
2019-05-22T09:30:40.896Z,84.08
2019-05-22T09:31:40.884Z,83.98
2019-05-22T09:32:40.860Z,84.18
2019-05-22T09:33:40.852Z,84.14
2019-05-22T09:34:40.846Z,84.04
2019-05-22T09:35:40.907Z,83.63
2019-05-22T09:36:40.822Z,82.82
2019-05-22T09:37:40.805Z,83.23
2019-05-22T09:38:40.802Z,82.62
2019-05-22T09:39:40.782Z,82.01
2019-05-22T09:40:40.774Z,82.62
2019-05-22T09:41:40.774Z,82.72
2019-05-22T09:42:40.763Z,82.05
2019-05-22T09:43:40.739Z,82.31
2019-05-22T09:44:40.729Z,82.82
2019-05-22T09:45:40.725Z,82.62
2019-05-22T09:46:40.721Z,83.12
2019-05-22T09:47:40.694Z,83.63
2019-05-22T09:48:40.754Z,83.33
2019-05-22T09:49:40.737Z,83.33
2019-05-22T09:50:40.661Z,83.53
2019-05-22T09:51:40.665Z,82.92
2019-05-22T09:52:54.634Z,83.33
2019-05-22T09:53:41.637Z,83.12
2019-05-22T09:54:40.630Z,83.43
2019-05-22T09:55:40.662Z,82.38
2019-05-22T09:56:40.603Z,82.98
2019-05-22T09:57:40.591Z,82.72
2019-05-22T09:58:40.575Z,82.89
2019-05-22T09:59:40.566Z,82.92
2019-05-22T10:00:40.554Z,82.78
2019-05-22T10:01:40.550Z,82.68
2019-05-22T10:02:40.531Z,82.48
2019-05-22T10:03:40.529Z,82.07
2019-05-22T10:04:40.513Z,81.97
2019-05-22T10:05:40.558Z,82.28
2019-05-22T10:06:40.494Z,82.38
2019-05-22T10:07:57.071Z,82.38
2019-05-22T10:08:41.466Z,82.58
2019-05-22T10:09:40.460Z,82.89
2019-05-22T10:10:40.440Z,82.52
2019-05-22T10:11:40.442Z,82.98
2019-05-22T10:12:40.424Z,82.48
2019-05-22T10:13:40.412Z,82.92
2019-05-22T10:14:40.396Z,82.52
2019-05-22T10:15:40.394Z,83.03
2019-05-22T10:16:40.388Z,83.43
2019-05-22T10:17:40.366Z,82.82
2019-05-22T10:18:40.365Z,83.23
2019-05-22T10:19:40.355Z,82.82
2019-05-22T10:20:40.336Z,83.33
2019-05-22T10:21:40.325Z,82.72
2019-05-22T10:22:40.317Z,83.03
2019-05-22T10:23:40.296Z,84.04
2019-05-22T10:24:40.299Z,83.63
2019-05-22T10:25:40.278Z,83.73
2019-05-22T10:26:40.267Z,82.72
2019-05-22T10:27:40.256Z,83.43
2019-05-22T10:28:40.251Z,83.33
2019-05-22T10:29:40.270Z,84.24
2019-05-22T10:30:40.219Z,83.94
2019-05-22T10:31:40.207Z,83.94
2019-05-22T10:32:40.195Z,84.14
2019-05-22T10:33:40.194Z,84.34
2019-05-22T10:34:40.178Z,83.87
2019-05-22T10:35:40.171Z,84.04
2019-05-22T10:36:43.137Z,84.24
2019-05-22T10:37:40.147Z,84.34
2019-05-22T10:38:40.135Z,84.55
2019-05-22T10:39:40.120Z,84.55
2019-05-22T10:40:40.134Z,84.14
2019-05-22T10:41:40.096Z,84.14
2019-05-22T10:42:44.405Z,84.55
2019-05-22T10:43:41.073Z,83.94
2019-05-22T10:44:40.090Z,83.83
2019-05-22T10:45:40.053Z,84.04
2019-05-22T10:46:40.049Z,84.04
2019-05-22T10:47:40.051Z,84.08
2019-05-22T10:48:40.820Z,84.28
2019-05-22T10:49:40.230Z,84.38
2019-05-22T10:50:40.042Z,83.87
2019-05-22T10:51:39.996Z,83.98
2019-05-22T10:52:39.982Z,83.94
2019-05-22T10:53:39.978Z,83.87
2019-05-22T10:54:39.951Z,83.98
2019-05-22T10:55:39.946Z,84.24
2019-05-22T10:56:39.957Z,84.14
2019-05-22T10:57:40.944Z,83.94
2019-05-22T10:58:39.913Z,84.14
2019-05-22T10:59:39.901Z,84.24
2019-05-22T11:00:39.891Z,84.55
2019-05-22T11:01:39.874Z,84.34
2019-05-22T11:02:39.876Z,83.63
2019-05-22T11:03:39.860Z,83.94
2019-05-22T11:04:39.852Z,83.98
2019-05-22T11:05:39.829Z,84.18
2019-05-22T11:06:39.820Z,84.44
2019-05-22T11:07:39.870Z,84.44
2019-05-22T11:08:39.802Z,84.18
2019-05-22T11:09:39.785Z,83.77
2019-05-22T11:10:39.782Z,83.98
2019-05-22T11:11:39.772Z,83.67
2019-05-22T11:12:39.760Z,83.87
2019-05-22T11:13:39.753Z,84.18
2019-05-22T11:14:39.736Z,84.08
2019-05-22T11:15:39.725Z,83.94
2019-05-22T11:16:39.708Z,84.18
2019-05-22T11:17:39.699Z,83.26
2019-05-22T11:18:39.695Z,84.18
2019-05-22T11:19:39.678Z,84.18
2019-05-22T11:20:39.663Z,84.18
2019-05-22T11:21:39.684Z,82.96
2019-05-22T11:22:39.641Z,83.67
2019-05-22T11:23:51.511Z,84.08
2019-05-22T11:24:40.628Z,83.87
2019-05-22T11:25:39.613Z,84.38
2019-05-22T11:26:39.597Z,84.08
2019-05-22T11:27:39.598Z,84.18
2019-05-22T11:28:39.588Z,84.22
2019-05-22T11:29:40.375Z,84.18
2019-05-22T11:30:39.563Z,83.77
2019-05-22T11:31:39.548Z,84.28
2019-05-22T11:32:39.536Z,84.58
2019-05-22T11:33:39.534Z,84.48
2019-05-22T11:34:39.509Z,84.38
2019-05-22T11:35:39.533Z,84.28
2019-05-22T11:36:39.491Z,84.28
2019-05-22T11:37:39.476Z,84.01
2019-05-22T11:38:39.472Z,84.08
2019-05-22T11:39:42.610Z,83.87
2019-05-22T11:40:40.457Z,83.87
2019-05-22T11:41:39.431Z,84.18
2019-05-22T11:42:39.428Z,83.87
2019-05-22T11:43:39.423Z,83.87
2019-05-22T11:44:39.404Z,83.98
2019-05-22T11:45:39.402Z,83.87
2019-05-22T11:46:39.396Z,83.87
2019-05-22T11:47:39.439Z,83.67
2019-05-22T11:48:39.360Z,84.28
2019-05-22T11:49:39.346Z,83.98
2019-05-22T11:50:39.356Z,83.87
2019-05-22T11:51:39.343Z,83.87
2019-05-22T11:52:39.336Z,84.18
2019-05-22T11:53:39.309Z,84.22
2019-05-22T11:54:39.326Z,84.83
2019-05-22T11:55:45.242Z,84.83
2019-05-22T11:56:40.277Z,85.13
2019-05-22T11:57:39.257Z,84.93
2019-05-22T11:58:39.256Z,85.13
2019-05-22T11:59:39.237Z,84.52
2019-05-22T12:00:39.232Z,84.93
2019-05-22T12:01:39.243Z,85.03
2019-05-22T12:02:39.210Z,84.83
2019-05-22T12:03:39.198Z,85.13
2019-05-22T12:04:47.714Z,84.93
2019-05-22T12:05:40.169Z,84.83
2019-05-22T12:06:39.174Z,85.24
2019-05-22T12:07:39.158Z,85.13
2019-05-22T12:08:39.151Z,85.44
2019-05-22T12:09:39.179Z,85.74
2019-05-22T12:10:39.115Z,85.33
2019-05-22T12:11:42.939Z,85.64
2019-05-22T12:12:39.107Z,85.53
2019-05-22T12:13:39.089Z,85.33
2019-05-22T12:14:39.074Z,85.03
2019-05-22T12:15:39.083Z,85.24
2019-05-22T12:16:39.053Z,85.24
2019-05-22T12:17:39.181Z,85.13
2019-05-22T12:18:39.031Z,84.83
2019-05-22T12:19:39.035Z,84.83
2019-05-22T12:20:39.006Z,84.72
2019-05-22T12:21:39.003Z,84.93
2019-05-22T12:22:38.992Z,85.24
2019-05-22T12:23:38.981Z,84.93
2019-05-22T12:24:39.025Z,85.03
2019-05-22T12:25:38.955Z,84.93
2019-05-22T12:26:38.946Z,84.72
2019-05-22T12:27:38.935Z,84.83
2019-05-22T12:28:38.920Z,84.72
2019-05-22T12:29:38.916Z,84.63
2019-05-22T12:30:38.908Z,84.52
2019-05-22T12:31:38.914Z,84.93
2019-05-22T12:32:38.949Z,84.83
2019-05-22T12:33:38.865Z,84.63
2019-05-22T12:34:38.936Z,84.83
2019-05-22T12:35:38.902Z,84.83
2019-05-22T12:36:38.847Z,84.83
2019-05-22T12:37:38.831Z,84.42
2019-05-22T12:38:38.811Z,84.01
2019-05-22T12:39:38.807Z,84.12
2019-05-22T12:40:38.795Z,84.01
2019-05-22T12:41:38.843Z,83.91
2019-05-22T12:42:38.868Z,84.12
2019-05-22T12:43:38.762Z,83.91
2019-05-22T12:44:38.756Z,83.91
2019-05-22T12:45:38.737Z,84.01
2019-05-22T12:46:38.741Z,83.91
2019-05-22T12:47:38.737Z,84.01
2019-05-22T12:48:38.708Z,83.91
2019-05-22T12:49:38.700Z,84.01
2019-05-22T12:50:38.681Z,83.98
2019-05-22T12:51:38.683Z,84.58
2019-05-22T12:52:38.671Z,84.22